ASN logo
ASN Wikibase Occurrence # 228439
Last updated: 6 December 2021
This information is added by users of ASN. Neither ASN nor the Flight Safety Foundation are responsible for the completeness or correctness of this information. If you feel this information is incomplete or incorrect, you can submit corrected information.

Date:23-AUG-2019
Time:07:40 UTC
Type:Silhouette image of generic CRJ2 model; specific model in this crash may look slightly different
Canadair CRJ-200ER (CL-600-2B19)
Owner/operator:Jiangsu Jet
Registration: B-3008
MSN: 7512
Fatalities:Fatalities: 0 / Occupants:
Other fatalities:0
Aircraft damage: None
Location:Shanghai-Hongqiao Airport (SHA/ZSSS) -   China
Phase: Landing
Nature:Unknown
Departure airport:Changzhou Airport (CZX/ZSCG)
Destination airport:Shanghai-Hongqiao Airport (SHA/ZSSS)
Narrative:
A Canadair CRJ-200ER (CL-600-2B19) corporate jet suffered a runway excursion after landing on runway 36R at Shanghai Hongqiao-Airport (SHA/ZSSS).

https://www.flickr.com/photos/asknvmmc/38505424271 (photo)

Weather about the incident time (0740Z):
ZSSS 230800Z 12003MPS 9999 FEW030 29/25 Q1009 NOSIG
ZSSS 230730Z 14002MPS 100V170 9999 FEW030 29/26 Q1009 NOSIG
ZSSS 230700Z 13003MPS 9999 FEW030TCU 29/26 Q1008 NOSIG

Sources:

@ChinaAvReview

Media:


Revision history:

Date/timeContributorUpdates
23-Aug-2019 11:02 harro Added
23-Aug-2019 11:40 RobertMB Updated [Aircraft type, Location, Embed code, Damage, Narrative]
23-Aug-2019 11:40 RobertMB Updated [Narrative]

Corrections or additions? ... Edit this accident description